Time;durP1;ratioP1;P1;durP2;ratioP2;P2;SDS_P1;SDS_P2;PMS_P1;PMS_P2;Temp;Humidity;BMP_temperature;BMP_pressure;BME280_temperature;BME280_humidity;BME280_pressure;Samples;Min_cycle;Max_cycle;Signal;HPM_P1;HPM_P2
2021/07/22 00:02:05;;;;;;;8.43;7.63;;;26.80;47.10;;;;;;4951066;29;20192;-54
2021/07/22 00:04:30;;;;;;;12.77;7.27;;;26.80;46.90;;;;;;4950846;29;20550;-49
2021/07/22 00:06:56;;;;;;;13.13;8.07;;;26.90;46.70;;;;;;4952885;29;20196;-53
2021/07/22 00:09:21;;;;;;;10.27;7.60;;;26.80;46.10;;;;;;4944484;29;20629;-48
2021/07/22 00:11:47;;;;;;;7.40;6.70;;;26.80;46.40;;;;;;4944974;29;20192;-54
2021/07/22 00:14:14;;;;;;;9.40;7.20;;;26.80;46.50;;;;;;4952587;28;20656;-53
2021/07/22 00:16:40;;;;;;;8.20;7.47;;;26.70;46.70;;;;;;4945873;29;20645;-52
2021/07/22 00:19:05;;;;;;;7.13;6.40;;;26.70;46.70;;;;;;4913284;29;1128295;-54
2021/07/22 00:21:31;;;;;;;6.87;6.27;;;26.60;46.70;;;;;;4949969;28;20243;-50
2021/07/22 00:23:57;;;;;;;7.97;6.27;;;26.70;46.80;;;;;;4952019;29;20188;-49
2021/07/22 00:26:23;;;;;;;7.90;7.23;;;26.70;46.90;;;;;;4936074;29;20607;-52
2021/07/22 00:28:48;;;;;;;9.53;7.90;;;26.70;46.90;;;;;;4953776;29;20440;-54
2021/07/22 00:31:14;;;;;;;7.70;7.00;;;26.80;46.80;;;;;;4951015;28;20571;-49
2021/07/22 00:33:39;;;;;;;7.87;7.10;;;26.80;46.60;;;;;;4953395;29;20203;-52
2021/07/22 00:36:09;;;;;;;8.60;7.70;;;26.80;46.40;;;;;;4949321;29;20330;-47
2021/07/22 00:38:35;;;;;;;8.40;7.47;;;26.80;46.20;;;;;;4939460;29;20327;-54
2021/07/22 00:41:01;;;;;;;7.67;6.90;;;26.70;46.20;;;;;;4938855;29;20523;-53
2021/07/22 00:43:26;;;;;;;10.20;6.97;;;26.60;46.50;;;;;;4953240;29;20278;-49
2021/07/22 00:45:52;;;;;;;8.90;6.93;;;26.60;46.70;;;;;;4948767;29;20196;-52
2021/07/22 00:48:18;;;;;;;6.73;6.07;;;26.60;46.90;;;;;;4943744;29;20188;-48
2021/07/22 00:50:43;;;;;;;6.80;6.20;;;26.50;47.10;;;;;;4937006;29;20220;-52
2021/07/22 00:53:09;;;;;;;7.40;6.67;;;26.60;47.10;;;;;;4951333;29;20543;-52
2021/07/22 00:55:34;;;;;;;6.97;6.30;;;26.60;46.90;;;;;;4948086;29;20203;-49
2021/07/22 00:58:00;;;;;;;7.57;6.87;;;26.60;46.80;;;;;;4952502;28;20250;-52
2021/07/22 01:00:26;;;;;;;8.03;7.27;;;26.60;46.70;;;;;;4952155;29;20204;-51
2021/07/22 01:02:51;;;;;;;7.77;6.97;;;26.60;46.50;;;;;;4952961;28;20234;-52
2021/07/22 01:05:17;;;;;;;8.43;6.60;;;26.50;46.90;;;;;;4951919;28;20203;-53
2021/07/22 01:07:42;;;;;;;7.80;7.07;;;26.40;46.90;;;;;;4952884;29;20196;-50
2021/07/22 01:10:09;;;;;;;7.07;6.47;;;26.40;47.10;;;;;;4951382;28;20222;-53
2021/07/22 01:12:35;;;;;;;7.73;6.93;;;26.40;47.10;;;;;;4952278;29;20232;-52
2021/07/22 01:15:00;;;;;;;9.67;7.30;;;26.40;47.00;;;;;;4943507;29;20475;-49
2021/07/22 01:17:45;;;;;;;8.40;6.80;;;26.40;46.60;;;;;;4950343;29;20286;-52
2021/07/22 01:20:13;;;;;;;7.50;6.70;;;26.40;46.70;;;;;;4946830;29;20213;-53
2021/07/22 01:22:40;;;;;;;7.70;6.90;;;26.30;46.70;;;;;;4949352;29;20777;-47
2021/07/22 01:25:06;;;;;;;7.30;6.37;;;26.20;47.00;;;;;;4946103;28;20873;-47
2021/07/22 01:27:32;;;;;;;6.67;6.07;;;26.10;47.30;;;;;;4951186;29;20428;-47
2021/07/22 01:29:57;;;;;;;7.67;6.80;;;26.10;47.70;;;;;;4951818;29;20442;-47
2021/07/22 01:32:23;;;;;;;6.83;6.20;;;26.10;47.80;;;;;;4947811;29;20668;-47
2021/07/22 01:34:49;;;;;;;6.60;6.00;;;26.10;47.50;;;;;;4952425;28;20208;-51
2021/07/22 01:37:14;;;;;;;6.20;5.70;;;26.20;47.50;;;;;;4952349;29;20243;-52
2021/07/22 01:39:40;;;;;;;7.43;6.83;;;26.20;47.30;;;;;;4946128;28;20231;-53
2021/07/22 01:42:06;;;;;;;8.33;7.00;;;26.20;46.90;;;;;;4946280;29;20247;-53
2021/07/22 01:44:32;;;;;;;6.73;5.77;;;26.10;46.90;;;;;;4947586;29;20204;-51
2021/07/22 01:46:57;;;;;;;7.33;6.73;;;26.10;47.10;;;;;;4951895;29;20423;-53
2021/07/22 01:49:23;;;;;;;8.13;7.33;;;26.10;47.40;;;;;;4948128;29;20222;-53
2021/07/22 01:51:48;;;;;;;7.17;6.50;;;26.10;47.00;;;;;;4949971;29;20196;-53
2021/07/22 01:54:14;;;;;;;8.57;6.50;;;26.00;47.20;;;;;;4951585;29;20195;-52
2021/07/22 01:56:39;;;;;;;8.10;7.30;;;26.00;47.30;;;;;;4950192;28;20692;-52
2021/07/22 01:59:05;;;;;;;7.83;6.87;;;25.90;47.50;;;;;;4952092;29;20204;-52
2021/07/22 02:01:31;;;;;;;8.27;6.37;;;25.90;47.40;;;;;;4945419;28;20188;-48
2021/07/22 02:03:56;;;;;;;6.43;5.83;;;25.80;47.30;;;;;;4949275;28;20274;-48
2021/07/22 02:06:22;;;;;;;6.93;6.27;;;25.70;47.60;;;;;;4952248;28;20203;-48
2021/07/22 02:08:47;;;;;;;7.30;6.50;;;25.70;47.80;;;;;;4950332;29;20736;-48
2021/07/22 02:11:13;;;;;;;8.70;7.73;;;25.70;47.70;;;;;;4951322;29;20202;-47
2021/07/22 02:13:38;;;;;;;6.77;5.60;;;25.60;47.60;;;;;;4950586;29;20279;-53
2021/07/22 02:16:08;;;;;;;7.27;6.00;;;25.60;48.00;;;;;;4951345;28;20223;-51
2021/07/22 02:18:33;;;;;;;6.73;6.13;;;25.60;47.90;;;;;;4954219;29;20227;-54
2021/07/22 02:21:04;;;;;;;12.53;7.10;;;25.60;47.90;;;;;;4953431;29;20931;-51
2021/07/22 02:23:30;;;;;;;6.30;5.80;;;25.60;47.80;;;;;;4950091;29;20231;-52
2021/07/22 02:25:55;;;;;;;7.10;6.50;;;25.60;47.70;;;;;;4952920;29;20476;-52
2021/07/22 02:28:21;;;;;;;9.40;6.73;;;25.60;48.20;;;;;;4960127;28;20195;-48
2021/07/22 02:30:47;;;;;;;10.83;6.30;;;25.60;48.20;;;;;;4949879;29;20196;-53
2021/07/22 02:33:12;;;;;;;7.10;6.40;;;25.60;48.00;;;;;;4951294;29;20201;-53
2021/07/22 02:35:38;;;;;;;6.50;5.90;;;25.60;47.80;;;;;;4954189;29;20648;-49
2021/07/22 02:38:03;;;;;;;9.83;6.40;;;25.60;47.60;;;;;;4955273;29;20669;-50
2021/07/22 02:40:29;;;;;;;10.30;7.43;;;25.60;47.70;;;;;;4953793;28;20189;-49
2021/07/22 02:42:54;;;;;;;7.00;5.83;;;25.60;47.50;;;;;;4954237;29;20195;-48
2021/07/22 02:45:20;;;;;;;7.80;7.00;;;25.60;47.70;;;;;;4952897;29;20678;-47
2021/07/22 02:47:46;;;;;;;8.40;7.60;;;25.60;47.90;;;;;;4954847;29;20204;-48
2021/07/22 02:50:11;;;;;;;7.17;6.47;;;25.60;47.50;;;;;;4951717;29;20199;-52
2021/07/22 02:52:37;;;;;;;7.20;6.50;;;25.50;47.30;;;;;;4954449;29;20196;-48
2021/07/22 02:55:03;;;;;;;10.23;6.87;;;25.30;47.70;;;;;;4944941;29;20196;-47
2021/07/22 02:57:29;;;;;;;7.37;6.77;;;25.20;48.50;;;;;;4952848;29;20227;-47
2021/07/22 02:59:56;;;;;;;9.20;6.93;;;25.10;48.30;;;;;;4951562;29;20852;-47
2021/07/22 03:02:22;;;;;;;8.27;7.47;;;25.10;48.50;;;;;;4949318;29;20226;-48
2021/07/22 03:04:47;;;;;;;10.03;6.47;;;25.10;47.90;;;;;;4954779;29;20499;-47
2021/07/22 03:07:13;;;;;;;8.87;7.93;;;25.00;48.00;;;;;;4952186;29;20200;-46
2021/07/22 03:09:38;;;;;;;7.13;6.47;;;25.00;48.60;;;;;;4954479;28;20195;-48
2021/07/22 03:12:04;;;;;;;9.27;6.53;;;24.90;48.50;;;;;;4952442;29;20298;-47
2021/07/22 03:14:30;;;;;;;7.13;6.53;;;24.80;48.80;;;;;;4954408;28;20199;-47
2021/07/22 03:16:55;;;;;;;7.20;6.33;;;24.80;48.70;;;;;;4947976;29;20318;-47
2021/07/22 03:19:22;;;;;;;7.13;5.97;;;24.70;48.60;;;;;;4953939;28;20192;-48
2021/07/22 03:21:47;;;;;;;6.90;5.80;;;24.70;48.70;;;;;;4940361;29;20222;-50
2021/07/22 03:24:13;;;;;;;8.03;6.40;;;24.60;48.70;;;;;;4953990;28;20435;-48
2021/07/22 03:26:38;;;;;;;7.30;6.60;;;24.60;48.70;;;;;;4949687;28;20566;-46
2021/07/22 03:29:04;;;;;;;7.20;6.40;;;24.60;48.80;;;;;;4945133;29;20200;-47
2021/07/22 03:31:30;;;;;;;10.30;6.50;;;24.50;48.80;;;;;;4953334;29;20200;-46
2021/07/22 03:33:55;;;;;;;7.80;6.97;;;24.50;49.20;;;;;;4948338;29;20283;-49
2021/07/22 03:36:22;;;;;;;7.00;6.40;;;24.50;49.90;;;;;;4953696;29;20275;-47
2021/07/22 03:38:47;;;;;;;6.40;5.80;;;24.50;49.50;;;;;;4946750;29;20200;-50
2021/07/22 03:41:15;;;;;;;7.73;6.47;;;24.30;48.80;;;;;;4944582;28;20444;-50
2021/07/22 03:43:40;;;;;;;8.03;6.10;;;24.30;49.20;;;;;;4949528;29;20192;-47
2021/07/22 03:46:06;;;;;;;6.63;6.00;;;24.10;49.60;;;;;;4953443;29;21179;-47
2021/07/22 03:48:31;;;;;;;8.10;7.30;;;24.00;50.00;;;;;;4954747;29;20279;-49
2021/07/22 03:50:57;;;;;;;7.63;6.47;;;24.00;50.20;;;;;;4948195;29;20741;-47
2021/07/22 03:53:22;;;;;;;7.13;6.43;;;24.00;50.30;;;;;;4952071;28;20198;-49
2021/07/22 03:55:48;;;;;;;12.00;6.73;;;24.00;50.10;;;;;;4951704;29;20196;-49
2021/07/22 03:58:14;;;;;;;6.70;6.10;;;24.00;50.20;;;;;;4948587;29;20192;-47
2021/07/22 04:00:39;;;;;;;8.40;6.40;;;23.90;50.70;;;;;;4952620;28;20192;-49
2021/07/22 04:03:05;;;;;;;7.20;6.43;;;23.90;51.00;;;;;;4945096;29;20279;-48
2021/07/22 04:05:31;;;;;;;10.20;7.43;;;23.90;51.20;;;;;;4952735;29;20192;-48
2021/07/22 04:07:57;;;;;;;10.60;7.60;;;24.00;50.70;;;;;;4939228;28;20649;-49
2021/07/22 04:10:27;;;;;;;8.37;7.10;;;24.10;50.60;;;;;;4952677;29;20196;-52
2021/07/22 04:13:02;;;;;;;8.30;7.50;;;24.10;50.50;;;;;;4953335;29;20435;-46
2021/07/22 04:15:29;;;;;;;9.70;6.93;;;24.20;50.50;;;;;;4945187;29;20450;-46
2021/07/22 04:17:56;;;;;;;9.17;7.80;;;24.10;50.70;;;;;;4950003;28;20558;-46
2021/07/22 04:20:23;;;;;;;7.93;7.20;;;24.10;50.80;;;;;;4944794;29;20507;-48
2021/07/22 04:22:50;;;;;;;7.30;6.60;;;24.10;50.70;;;;;;4947547;29;20846;-46
2021/07/22 04:25:16;;;;;;;8.20;6.97;;;24.10;50.90;;;;;;4945151;29;20800;-46
2021/07/22 04:27:42;;;;;;;6.00;5.30;;;24.20;50.40;;;;;;4948913;29;20436;-46
2021/07/22 04:30:09;;;;;;;7.83;6.40;;;24.20;50.60;;;;;;4953095;28;20452;-46
2021/07/22 04:32:36;;;;;;;7.30;6.40;;;24.20;50.90;;;;;;4952111;28;20447;-46
2021/07/22 04:35:02;;;;;;;8.23;7.33;;;24.30;51.30;;;;;;4950355;29;20448;-46
2021/07/22 04:37:27;;;;;;;7.73;6.90;;;24.40;51.20;;;;;;4952133;28;20509;-45
2021/07/22 04:39:53;;;;;;;8.70;6.80;;;24.50;51.00;;;;;;4951917;28;20215;-45
2021/07/22 04:42:19;;;;;;;7.10;6.37;;;24.50;50.80;;;;;;4951660;28;20470;-46
2021/07/22 04:44:44;;;;;;;8.57;7.60;;;24.60;50.70;;;;;;4952704;29;20203;-45
2021/07/22 04:47:10;;;;;;;10.60;7.30;;;24.70;50.60;;;;;;4947976;29;20276;-45
2021/07/22 04:49:35;;;;;;;7.63;6.87;;;24.30;51.00;;;;;;4950121;29;20200;-51
2021/07/22 04:52:01;;;;;;;8.30;7.50;;;24.20;51.30;;;;;;4952506;29;20200;-46
2021/07/22 04:54:26;;;;;;;7.90;7.10;;;24.30;51.30;;;;;;4952771;29;20274;-46
2021/07/22 04:56:52;;;;;;;8.73;7.03;;;24.10;51.50;;;;;;4952584;29;20714;-46
2021/07/22 04:59:18;;;;;;;7.83;7.07;;;24.30;51.50;;;;;;4945398;28;20599;-46
2021/07/22 05:01:43;;;;;;;6.97;6.37;;;24.40;51.20;;;;;;4947480;29;20188;-49
2021/07/22 05:04:15;;;;;;;9.03;8.23;;;24.40;50.70;;;;;;4945046;28;20201;-46
2021/07/22 05:06:40;;;;;;;7.37;6.13;;;24.40;51.30;;;;;;4937459;29;20263;-45
2021/07/22 05:09:06;;;;;;;10.27;7.77;;;24.40;50.80;;;;;;4946061;29;20917;-46
2021/07/22 05:11:31;;;;;;;10.27;7.43;;;24.50;51.00;;;;;;4947220;28;20191;-45
2021/07/22 05:13:57;;;;;;;9.23;8.17;;;24.20;51.20;;;;;;4952531;28;20243;-46
2021/07/22 05:16:23;;;;;;;8.17;7.37;;;24.10;51.90;;;;;;4952224;28;20315;-46
2021/07/22 05:18:51;;;;;;;8.17;7.37;;;24.10;52.40;;;;;;4951033;28;20267;-46
2021/07/22 05:21:16;;;;;;;9.87;6.93;;;24.20;52.00;;;;;;4949025;29;20312;-46
2021/07/22 05:23:42;;;;;;;10.83;8.13;;;24.30;51.60;;;;;;4951837;28;20510;-48
2021/07/22 05:26:10;;;;;;;8.80;7.80;;;24.40;51.30;;;;;;4946956;29;20204;-46
2021/07/22 05:28:39;;;;;;;9.70;6.90;;;24.30;51.30;;;;;;4941537;29;20215;-46
2021/07/22 05:31:12;;;;;;;12.43;7.93;;;24.40;51.30;;;;;;4948126;29;20451;-46
2021/07/22 05:33:41;;;;;;;7.83;7.00;;;24.30;51.20;;;;;;4948265;28;20804;-46
2021/07/22 05:36:09;;;;;;;10.33;7.97;;;24.40;51.20;;;;;;4951138;29;20507;-51
2021/07/22 05:38:35;;;;;;;8.03;7.30;;;24.40;51.10;;;;;;4944802;28;20966;-47
2021/07/22 05:41:02;;;;;;;16.73;8.40;;;24.40;51.00;;;;;;4947981;28;20916;-48
2021/07/22 05:43:28;;;;;;;13.07;8.10;;;24.30;51.20;;;;;;4950320;28;20443;-46
2021/07/22 05:45:55;;;;;;;8.53;7.70;;;24.30;51.20;;;;;;4941511;28;20460;-50
2021/07/22 05:48:20;;;;;;;9.03;8.13;;;24.30;51.30;;;;;;4947736;28;20444;-46
2021/07/22 05:50:47;;;;;;;7.87;7.17;;;24.30;51.40;;;;;;4948106;28;21383;-46
2021/07/22 05:53:12;;;;;;;8.67;7.87;;;24.30;51.20;;;;;;4951680;28;20471;-47
2021/07/22 05:55:38;;;;;;;10.47;8.97;;;24.40;51.20;;;;;;4945391;28;20436;-46
2021/07/22 05:58:04;;;;;;;8.70;7.90;;;24.30;51.50;;;;;;4944284;28;20211;-46
2021/07/22 06:00:29;;;;;;;10.13;8.40;;;24.20;51.60;;;;;;4950852;28;20251;-46
2021/07/22 06:02:55;;;;;;;8.50;7.30;;;24.10;51.60;;;;;;4948309;28;20204;-47
2021/07/22 06:05:21;;;;;;;10.13;8.57;;;24.10;51.70;;;;;;4950351;29;20216;-46
2021/07/22 06:07:46;;;;;;;8.93;7.57;;;24.00;52.10;;;;;;4949088;28;20250;-46
2021/07/22 06:10:13;;;;;;;11.73;9.20;;;24.00;52.10;;;;;;4949722;28;20201;-48
2021/07/22 06:12:41;;;;;;;9.60;8.60;;;24.10;52.10;;;;;;4953891;28;20195;-46
2021/07/22 06:15:09;;;;;;;10.43;8.83;;;24.20;52.20;;;;;;4950240;28;20509;-52
2021/07/22 06:17:36;;;;;;;9.70;8.70;;;24.30;52.20;;;;;;4950077;28;20490;-51
2021/07/22 06:20:03;;;;;;;10.83;8.83;;;24.30;52.10;;;;;;4950655;28;20452;-46
2021/07/22 06:22:29;;;;;;;10.70;8.70;;;24.30;52.00;;;;;;4940562;28;20582;-46
2021/07/22 06:24:55;;;;;;;12.60;9.77;;;24.40;52.00;;;;;;4951546;28;20942;-47
2021/07/22 06:27:20;;;;;;;9.83;8.70;;;24.40;52.00;;;;;;4949252;28;20219;-46
2021/07/22 06:29:46;;;;;;;8.67;7.90;;;24.40;52.00;;;;;;4945358;28;20200;-46
2021/07/22 06:32:11;;;;;;;12.30;8.80;;;24.50;52.30;;;;;;4945902;28;20207;-45
2021/07/22 06:34:37;;;;;;;15.10;9.60;;;24.50;52.00;;;;;;4949248;28;20200;-46
2021/07/22 06:37:03;;;;;;;10.57;8.50;;;24.50;52.10;;;;;;4947598;28;20239;-46
2021/07/22 06:39:35;;;;;;;11.20;8.03;;;24.50;52.30;;;;;;4953843;28;20200;-46
2021/07/22 06:42:02;;;;;;;11.47;8.50;;;24.60;52.00;;;;;;4954197;28;20196;-46
2021/07/22 06:44:28;;;;;;;11.73;8.50;;;24.70;51.90;;;;;;4950243;29;20998;-47
2021/07/22 06:46:53;;;;;;;10.13;7.30;;;24.70;52.10;;;;;;4948415;28;20446;-46
2021/07/22 06:49:19;;;;;;;9.03;8.07;;;24.80;52.10;;;;;;4952794;28;20439;-50
2021/07/22 06:51:44;;;;;;;8.10;7.40;;;24.80;52.10;;;;;;4954155;28;20311;-50
2021/07/22 06:54:10;;;;;;;9.50;8.50;;;24.90;52.10;;;;;;4949184;28;20200;-49
2021/07/22 06:56:36;;;;;;;9.17;8.10;;;25.00;52.10;;;;;;4950377;28;20242;-46
2021/07/22 06:59:02;;;;;;;11.23;8.37;;;25.00;51.70;;;;;;4948044;28;20899;-46
2021/07/22 07:01:27;;;;;;;9.03;8.13;;;25.20;51.40;;;;;;4952199;28;20547;-47
2021/07/22 07:03:53;;;;;;;9.57;8.67;;;25.30;51.00;;;;;;4954152;29;20200;-49
2021/07/22 07:06:18;;;;;;;8.17;7.37;;;25.40;50.70;;;;;;4950431;28;20258;-46
2021/07/22 07:08:44;;;;;;;10.70;8.67;;;25.40;49.70;;;;;;4949945;28;20566;-48
2021/07/22 07:11:10;;;;;;;13.03;8.33;;;25.40;49.50;;;;;;4946614;28;20682;-47
2021/07/22 07:13:35;;;;;;;13.10;7.67;;;25.50;49.70;;;;;;4949850;28;20192;-47
2021/07/22 07:16:05;;;;;;;8.50;7.70;;;25.50;49.40;;;;;;4942443;28;20772;-49
2021/07/22 07:18:31;;;;;;;8.13;7.33;;;25.40;49.70;;;;;;4943965;28;20755;-48
2021/07/22 07:20:56;;;;;;;9.30;8.07;;;25.40;50.00;;;;;;4943530;29;20534;-51
2021/07/22 07:23:22;;;;;;;9.50;8.60;;;25.50;50.30;;;;;;4945914;29;20227;-49
2021/07/22 07:25:47;;;;;;;10.90;8.00;;;25.60;50.00;;;;;;4950563;28;20207;-49
2021/07/22 07:28:13;;;;;;;9.23;8.40;;;25.70;50.00;;;;;;4947984;28;20195;-47
2021/07/22 07:30:39;;;;;;;8.33;7.30;;;25.90;50.30;;;;;;4948545;28;20257;-52
2021/07/22 07:33:04;;;;;;;8.40;7.60;;;25.90;50.10;;;;;;4948904;28;20263;-51
2021/07/22 07:35:31;;;;;;;10.80;7.80;;;26.10;50.30;;;;;;4947127;28;20691;-48
2021/07/22 07:37:56;;;;;;;9.13;8.23;;;26.20;50.00;;;;;;4947551;28;20329;-51
2021/07/22 07:40:22;;;;;;;9.20;8.30;;;26.30;49.90;;;;;;4944440;28;21352;-48
2021/07/22 07:42:48;;;;;;;11.87;8.33;;;26.50;49.30;;;;;;4948616;29;20200;-49
2021/07/22 07:45:13;;;;;;;9.10;8.20;;;26.60;49.40;;;;;;4947039;28;20551;-51
2021/07/22 07:47:40;;;;;;;14.63;9.77;;;26.80;49.90;;;;;;4942372;28;20204;-48
2021/07/22 07:50:07;;;;;;;9.47;7.80;;;26.90;49.20;;;;;;4950904;28;20204;-47
2021/07/22 07:52:36;;;;;;;9.07;8.17;;;27.00;48.40;;;;;;4949358;28;20447;-48
2021/07/22 07:55:06;;;;;;;8.23;7.43;;;27.10;47.40;;;;;;4951795;28;20487;-48
2021/07/22 07:57:32;;;;;;;9.40;8.50;;;27.10;47.90;;;;;;4952441;29;20498;-48
2021/07/22 07:59:58;;;;;;;9.47;7.97;;;27.20;48.40;;;;;;4940585;28;20618;-47
2021/07/22 08:02:24;;;;;;;8.60;7.80;;;27.20;48.50;;;;;;4949754;28;20447;-50
2021/07/22 08:04:49;;;;;;;8.07;7.37;;;27.30;47.90;;;;;;4950656;28;20254;-48
2021/07/22 08:07:15;;;;;;;10.43;8.10;;;27.50;48.00;;;;;;4946052;28;20195;-50
2021/07/22 08:09:40;;;;;;;8.43;7.57;;;27.60;47.70;;;;;;4945192;28;20199;-48
2021/07/22 08:12:07;;;;;;;8.67;7.77;;;27.70;47.60;;;;;;4944297;28;20196;-48
2021/07/22 08:14:36;;;;;;;8.00;7.30;;;27.90;47.40;;;;;;4949049;28;20200;-48
2021/07/22 08:17:03;;;;;;;8.07;7.27;;;28.00;47.30;;;;;;4948023;28;20484;-48
2021/07/22 08:19:29;;;;;;;8.87;8.07;;;28.10;47.40;;;;;;4951286;28;20505;-48
2021/07/22 08:21:55;;;;;;;8.43;7.60;;;28.20;46.80;;;;;;4948767;28;20435;-53
2021/07/22 08:24:20;;;;;;;9.97;8.33;;;28.40;46.80;;;;;;4951312;28;20959;-48
2021/07/22 08:26:46;;;;;;;8.60;7.70;;;28.40;46.10;;;;;;4942810;28;20200;-49
2021/07/22 08:29:11;;;;;;;9.43;8.47;;;28.50;45.80;;;;;;4949150;28;20248;-49
2021/07/22 08:31:37;;;;;;;11.33;8.63;;;28.60;45.60;;;;;;4944115;28;21138;-49
2021/07/22 08:34:03;;;;;;;8.23;7.43;;;28.60;45.70;;;;;;4939811;28;20207;-47
2021/07/22 08:36:29;;;;;;;9.27;8.43;;;28.70;45.60;;;;;;4942305;29;20290;-47
2021/07/22 08:38:54;;;;;;;8.80;8.00;;;28.70;45.50;;;;;;4949808;29;20827;-47
2021/07/22 08:41:20;;;;;;;7.97;7.37;;;28.70;45.30;;;;;;4946716;29;20196;-52
2021/07/22 08:43:50;;;;;;;10.00;8.30;;;28.80;45.40;;;;;;4944459;29;20188;-50
2021/07/22 08:46:16;;;;;;;9.17;8.00;;;28.90;45.40;;;;;;4942554;28;20204;-48
2021/07/22 08:48:43;;;;;;;11.30;8.67;;;29.00;44.70;;;;;;4950546;29;20454;-52
2021/07/22 08:51:09;;;;;;;8.77;7.97;;;29.10;45.30;;;;;;4946845;28;20436;-48
2021/07/22 08:53:35;;;;;;;9.20;8.30;;;29.20;45.60;;;;;;4942295;28;21128;-51
2021/07/22 08:56:02;;;;;;;7.83;7.13;;;29.30;45.10;;;;;;4943022;28;20240;-50
2021/07/22 08:58:28;;;;;;;8.07;7.27;;;29.50;44.60;;;;;;4951072;29;20443;-48
2021/07/22 09:01:01;;;;;;;7.70;6.97;;;29.50;44.30;;;;;;4943183;28;20492;-50
2021/07/22 09:03:26;;;;;;;8.83;7.93;;;29.60;44.40;;;;;;4948700;28;20528;-53
2021/07/22 09:05:52;;;;;;;8.20;7.40;;;29.60;45.20;;;;;;4951991;29;20852;-52
2021/07/22 09:08:18;;;;;;;9.23;8.40;;;29.60;44.40;;;;;;4940718;29;20196;-50
2021/07/22 09:11:03;;;;;;;8.93;7.63;;;29.70;44.20;;;;;;4934746;29;20215;-47
2021/07/22 09:13:28;;;;;;;8.43;7.63;;;29.80;44.10;;;;;;4945276;29;20567;-47
2021/07/22 09:15:54;;;;;;;9.00;8.10;;;29.90;44.10;;;;;;4948778;29;20443;-48
2021/07/22 09:18:25;;;;;;;10.77;7.83;;;30.00;44.20;;;;;;4948514;28;20673;-50
2021/07/22 09:20:52;;;;;;;8.63;7.93;;;30.20;43.50;;;;;;4940527;28;20333;-49
2021/07/22 09:23:20;;;;;;;13.13;7.93;;;30.30;43.10;;;;;;4945363;29;20875;-49
2021/07/22 09:25:48;;;;;;;8.47;7.43;;;30.40;42.80;;;;;;4943545;28;20467;-50
2021/07/22 09:28:19;;;;;;;8.93;8.10;;;30.50;42.90;;;;;;4949384;28;20846;-47
2021/07/22 09:30:54;;;;;;;9.93;7.30;;;30.60;43.10;;;;;;4952071;29;20440;-50
2021/07/22 09:33:35;;;;;;;8.90;8.00;;;30.80;42.80;;;;;;4947004;28;20459;-48
2021/07/22 09:36:01;;;;;;;9.70;8.00;;;30.90;41.70;;;;;;4945572;29;20458;-46
2021/07/22 09:38:30;;;;;;;8.80;7.90;;;31.00;41.80;;;;;;4951835;28;20454;-47
2021/07/22 09:40:55;;;;;;;12.60;8.10;;;31.10;40.90;;;;;;4950008;29;20455;-46
2021/07/22 09:43:38;;;;;;;9.10;8.27;;;31.10;40.60;;;;;;4947850;28;20447;-50
2021/07/22 09:46:05;;;;;;;7.77;6.70;;;31.20;40.00;;;;;;4954217;28;20203;-50
2021/07/22 09:48:30;;;;;;;8.97;7.70;;;31.30;40.80;;;;;;4946199;28;20598;-50
2021/07/22 09:50:56;;;;;;;8.30;7.60;;;31.50;40.20;;;;;;4947903;29;20448;-47
2021/07/22 09:53:23;;;;;;;7.60;6.90;;;31.70;40.00;;;;;;4945169;28;20672;-47
2021/07/22 09:55:54;;;;;;;10.37;8.20;;;31.70;39.40;;;;;;4949537;28;20254;-49
2021/07/22 09:58:20;;;;;;;12.23;8.10;;;31.80;39.10;;;;;;4943673;28;20864;-46
2021/07/22 10:00:55;;;;;;;8.13;7.33;;;32.00;38.50;;;;;;4952406;28;20455;-51
2021/07/22 10:03:21;;;;;;;8.37;6.40;;;32.20;38.30;;;;;;4951130;28;20450;-51
2021/07/22 10:06:01;;;;;;;8.23;7.37;;;32.30;38.40;;;;;;4951477;28;20459;-47
2021/07/22 10:08:30;;;;;;;9.27;7.90;;;32.30;37.20;;;;;;4953073;28;20447;-46
2021/07/22 10:10:56;;;;;;;8.40;7.60;;;32.40;37.10;;;;;;4954250;28;20443;-48
2021/07/22 10:13:40;;;;;;;8.13;7.47;;;32.60;36.90;;;;;;4952437;28;20454;-47
2021/07/22 10:16:09;;;;;;;11.40;7.53;;;32.80;36.70;;;;;;4951545;28;20467;-48
2021/07/22 10:18:43;;;;;;;8.83;7.93;;;33.00;36.40;;;;;;4947536;28;21354;-47
2021/07/22 10:21:08;;;;;;;8.57;7.63;;;33.10;36.90;;;;;;4952342;28;20443;-46
2021/07/22 10:23:34;;;;;;;8.87;7.27;;;33.10;35.80;;;;;;4948773;28;20460;-52
2021/07/22 10:26:00;;;;;;;8.20;7.40;;;33.20;35.70;;;;;;4946638;29;20227;-47
2021/07/22 10:28:27;;;;;;;7.57;6.90;;;33.30;35.60;;;;;;4952685;29;20196;-51
2021/07/22 10:30:53;;;;;;;8.13;7.43;;;33.40;35.40;;;;;;4948983;29;20490;-47
2021/07/22 10:33:20;;;;;;;7.93;7.00;;;33.40;36.00;;;;;;4947921;28;20452;-49
2021/07/22 10:35:50;;;;;;;7.60;6.80;;;33.40;35.60;;;;;;4949667;28;20223;-52
2021/07/22 10:38:27;;;;;;;7.27;6.57;;;33.40;36.10;;;;;;4949045;28;20459;-50
2021/07/22 10:41:01;;;;;;;7.13;6.43;;;33.60;34.70;;;;;;4951473;28;20891;-49
2021/07/22 10:43:40;;;;;;;8.40;7.60;;;33.80;34.30;;;;;;4951989;28;20454;-47
2021/07/22 10:46:16;;;;;;;7.70;6.40;;;34.00;35.40;;;;;;4952427;28;20459;-47
2021/07/22 10:48:45;;;;;;;6.80;6.27;;;34.20;36.00;;;;;;4951919;28;20447;-51
2021/07/22 10:51:19;;;;;;;7.77;7.07;;;34.30;35.70;;;;;;4945576;28;20443;-48
2021/07/22 10:53:53;;;;;;;7.20;6.60;;;34.50;34.80;;;;;;4949322;28;21052;-49
2021/07/22 10:56:55;;;;;;;7.33;6.63;;;34.60;32.90;;;;;;4950337;28;20475;-48
2021/07/22 10:59:56;;;;;;;9.40;6.90;;;34.70;32.60;;;;;;4933824;28;20610;-48
2021/07/22 11:02:45;;;;;;;7.53;6.77;;;34.80;33.60;;;;;;4952170;28;20499;-47
2021/07/22 11:05:31;;;;;;;8.20;7.40;;;34.90;32.60;;;;;;4951582;28;20440;-46
2021/07/22 11:08:17;;;;;;;8.53;7.73;;;35.00;31.40;;;;;;4947198;28;20487;-51
2021/07/22 11:10:56;;;;;;;8.70;7.90;;;35.20;32.00;;;;;;4937545;28;20448;-46
2021/07/22 11:13:54;;;;;;;8.20;7.40;;;35.10;31.90;;;;;;4945818;28;20580;-51
2021/07/22 11:16:28;;;;;;;8.33;7.47;;;34.70;32.30;;;;;;4952851;28;20840;-52
2021/07/22 11:18:59;;;;;;;8.67;7.87;;;34.90;32.00;;;;;;4947993;28;20488;-50
2021/07/22 11:21:31;;;;;;;9.17;8.27;;;35.20;32.00;;;;;;4951403;28;20468;-49
2021/07/22 11:24:05;;;;;;;9.40;8.50;;;35.40;31.20;;;;;;4951095;29;20452;-48
2021/07/22 11:26:36;;;;;;;7.90;7.10;;;35.00;30.50;;;;;;4951892;28;20483;-46
2021/07/22 11:29:03;;;;;;;9.27;8.37;;;34.80;31.60;;;;;;4954306;29;20450;-47
2021/07/22 11:31:33;;;;;;;9.27;8.37;;;34.80;31.40;;;;;;4944242;29;20503;-51
2021/07/22 11:34:03;;;;;;;9.87;8.13;;;34.50;32.20;;;;;;4953620;28;20874;-48
2021/07/22 11:36:32;;;;;;;14.07;8.23;;;34.80;31.70;;;;;;4951857;29;20832;-50
2021/07/22 11:38:58;;;;;;;7.90;7.20;;;35.20;31.70;;;;;;4952312;28;20474;-48
2021/07/22 11:41:24;;;;;;;8.73;6.93;;;35.50;32.30;;;;;;4940137;29;20528;-50
2021/07/22 11:43:55;;;;;;;8.17;7.40;;;35.80;31.50;;;;;;4947205;29;20540;-47
2021/07/22 11:46:44;;;;;;;8.43;7.67;;;36.10;30.40;;;;;;4946980;28;20208;-47
2021/07/22 11:49:17;;;;;;;8.53;7.73;;;36.20;30.60;;;;;;4954478;28;20443;-48
2021/07/22 11:51:44;;;;;;;10.50;7.40;;;36.30;30.70;;;;;;4944838;28;20498;-52
2021/07/22 11:54:13;;;;;;;13.90;8.03;;;36.50;30.50;;;;;;4947842;28;20463;-52
2021/07/22 11:56:39;;;;;;;8.83;8.03;;;36.60;28.90;;;;;;4942612;28;20969;-49
2021/07/22 11:59:08;;;;;;;9.27;8.37;;;36.50;28.30;;;;;;4947096;28;20974;-51
2021/07/22 12:01:45;;;;;;;8.80;8.10;;;36.40;28.70;;;;;;4946070;28;20455;-52
2021/07/22 12:04:11;;;;;;;8.70;7.80;;;36.60;29.20;;;;;;4946936;28;20447;-52
2021/07/22 12:06:37;;;;;;;8.47;7.67;;;36.80;29.50;;;;;;4952444;29;20471;-50
2021/07/22 12:09:07;;;;;;;9.07;8.27;;;36.80;29.40;;;;;;4952224;29;20535;-47
2021/07/22 12:11:50;;;;;;;9.10;8.20;;;36.90;29.40;;;;;;4946950;28;20197;-50
2021/07/22 12:14:36;;;;;;;9.00;8.20;;;37.10;28.90;;;;;;4949500;28;21081;-53
2021/07/22 12:17:04;;;;;;;8.57;7.70;;;37.00;28.50;;;;;;4948472;29;20900;-48
2021/07/22 12:19:31;;;;;;;10.30;8.93;;;37.00;28.80;;;;;;4952011;29;20495;-50
2021/07/22 12:22:17;;;;;;;12.70;9.47;;;37.00;28.90;;;;;;4944622;28;20459;-50
2021/07/22 12:24:43;;;;;;;10.17;7.87;;;37.00;28.60;;;;;;4951056;28;20475;-51
2021/07/22 12:27:30;;;;;;;9.37;7.60;;;37.10;28.40;;;;;;4943639;28;20977;-50
2021/07/22 12:29:56;;;;;;;9.43;8.60;;;37.20;29.60;;;;;;4946995;28;20717;-51
2021/07/22 12:32:22;;;;;;;8.50;7.80;;;37.30;30.00;;;;;;4943669;28;20496;-51
2021/07/22 12:34:48;;;;;;;8.27;7.67;;;37.30;29.00;;;;;;4946546;28;20566;-48
2021/07/22 12:37:14;;;;;;;8.80;7.53;;;37.40;29.30;;;;;;4940558;28;20848;-49
2021/07/22 12:39:39;;;;;;;8.77;7.97;;;37.60;29.60;;;;;;4944737;28;20199;-52
2021/07/22 12:42:10;;;;;;;7.83;7.23;;;37.70;28.90;;;;;;4945082;28;20203;-51
2021/07/22 12:44:43;;;;;;;9.63;8.63;;;37.60;28.30;;;;;;4949894;28;20203;-52
2021/07/22 12:47:27;;;;;;;10.10;9.20;;;37.60;28.00;;;;;;4943678;28;20509;-50
2021/07/22 12:49:53;;;;;;;8.57;7.87;;;37.00;28.50;;;;;;4946106;28;20546;-52